ADDS METAR Data INFO
IDs: Format: Raw Decoded Include TAF

Data at: 1119 UTC 21 Feb 2018

PATO 201453Z AUTO 30006KT 10SM OVC006 M04/M06 A3041 RMK AO2 SLP299 T10441056 53007 TSNO
PATO 201400Z AUTO 00000KT 10SM BKN008 M06/M07 A3040 RMK AO2 T10611072 TSNO
PATO 201353Z AUTO VRB03KT 10SM SCT007 M06/M07 A3040 RMK AO2 SLP295 T10611072 TSNO
PATO 201344Z AUTO 27003KT 10SM SCT007 SCT110 M06/M07 A3040 RMK AO2 T10611072 TSNO
PATO 201253Z AUTO 00000KT 10SM SCT110 M06/M08 A3037 RMK AO2 SLP284 T10611078 TSNO
PATO 201153Z AUTO 00000KT 10SM SCT120 M06/M08 A3039 RMK AO2 SLP292 I6001 T10611078 11061 21083 51012 TSNO
PATO 201053Z AUTO 30003KT 10SM FEW005 SCT120 M08/M09 A3039 RMK AO2 SLP291 T10831094 TSNO
PATO 201011Z AUTO 00000KT 10SM SCT004 M08/M09 A3039 RMK AO2 T10781094 TSNO
PATO 200953Z AUTO 00000KT 10SM OVC004 M08/M09 A3039 RMK AO2 SLP291 T10781089 TSNO
PATO 200928Z AUTO 00000KT 10SM BKN005 M08/M09 A3037 RMK AO2 T10781089 TSNO
PATO 200853Z AUTO 00000KT 10SM FEW005 M08/M09 A3036 RMK AO2 SLP282 I1000 I3001 T10781089 400001083 58001 TSNO
PATO 200753Z AUTO 00000KT 10SM CLR M08/M10 A3038 RMK AO2 SLP289 T10831100 TSNO
PATO 200653Z AUTO 28004KT 10SM CLR M07/M08 A3038 RMK AO2 SLP290 I1001 T10721083 TSNO
PATO 200553Z AUTO 00000KT 10SM CLR M06/M08 A3036 RMK AO2 SLP283 I1001 I6001 T10611078 11006 21067 56002 TSNO
PATO 200453Z AUTO 32003KT 10SM CLR M05/M07 A3036 RMK AO2 SLP282 T10501067 TSNO
PATO 200353Z AUTO VRB03KT 10SM CLR M04/M06 A3036 RMK AO2 SLP283 T10391056 TSNO
PATO 200253Z AUTO 29003KT 10SM CLR M03/M05 A3037 RMK AO2 SLP284 T10281050 58001 TSNO
PATO 200153Z AUTO 29006KT 10SM FEW023 M02/M04 A3038 RMK AO2 SLP288 T10171044 TSNO
PATO 200127Z AUTO 26006KT 10SM SCT023 M01/M05 A3037 RMK AO2 T10111050 TSNO
PATO 200053Z AUTO 26003KT 10SM BKN024 M01/M05 A3037 RMK AO2 SLP285 T10061050 TSNO
PATO 200038Z AUTO 26003KT 10SM BKN023 M01/M04 A3037 RMK AO2 T10061044 TSNO
PATO 192353Z AUTO VRB03KT 10SM FEW022 M01/M04 A3037 RMK AO2 SLP285 T10111044 10000 21028 56007 TSNO